Time;durP1;ratioP1;P1;durP2;ratioP2;P2;SDS_P1;SDS_P2;PMS_P1;PMS_P2;Temp;Humidity;BMP_temperature;BMP_pressure;BME280_temperature;BME280_humidity;BME280_pressure;Samples;Min_cycle;Max_cycle;Signal;HPM_P1;HPM_P2
2021/01/10 00:00:23;;;;;;;71.07;35.85;;;0.10;94.20;;;;;;5050936;28;20499;-76
2021/01/10 00:02:50;;;;;;;75.40;36.85;;;0.00;94.40;;;;;;5050761;28;20016;-77
2021/01/10 00:05:30;;;;;;;74.93;38.40;;;-0.10;93.90;;;;;;5050733;28;20048;-76
2021/01/10 00:07:56;;;;;;;74.00;35.63;;;-0.20;94.70;;;;;;5050546;28;20500;-77
2021/01/10 00:10:23;;;;;;;80.55;39.97;;;-0.20;94.70;;;;;;5049385;28;20032;-76
2021/01/10 00:12:49;;;;;;;74.55;37.00;;;-0.30;95.20;;;;;;5050569;28;20032;-77
2021/01/10 00:15:17;;;;;;;72.00;36.95;;;-0.20;95.90;;;;;;5050779;28;20428;-76
2021/01/10 00:17:46;;;;;;;68.85;35.00;;;-0.10;94.30;;;;;;5050599;28;20427;-76
2021/01/10 00:20:13;;;;;;;69.05;36.60;;;-0.10;94.30;;;;;;5049044;28;20090;-76
2021/01/10 00:22:39;;;;;;;78.15;36.40;;;0.00;94.40;;;;;;5049459;28;20028;-76
2021/01/10 00:25:10;;;;;;;64.80;31.35;;;-0.10;93.00;;;;;;5050308;28;20025;-76
2021/01/10 00:27:37;;;;;;;72.25;34.10;;;-0.70;92.50;;;;;;5049443;28;20116;-76
2021/01/10 00:30:08;;;;;;;64.18;33.83;;;-1.10;94.90;;;;;;5049943;28;20021;-76
2021/01/10 00:32:34;;;;;;;69.93;35.92;;;-1.20;95.80;;;;;;5050744;28;20031;-77
2021/01/10 00:34:59;;;;;;;66.63;33.58;;;-1.20;97.20;;;;;;5050460;28;20602;-76
2021/01/10 00:37:25;;;;;;;77.68;38.28;;;-1.10;99.90;;;;;;5051082;28;20075;-76
2021/01/10 00:39:51;;;;;;;75.97;37.67;;;-1.00;99.90;;;;;;5053026;28;20029;-76
2021/01/10 00:42:18;;;;;;;87.93;40.17;;;-0.90;98.30;;;;;;5053430;28;20049;-76
2021/01/10 00:44:46;;;;;;;70.25;36.08;;;-1.30;99.70;;;;;;5052938;28;20488;-76
2021/01/10 00:47:12;;;;;;;76.43;39.08;;;-1.40;99.90;;;;;;5054710;28;20021;-76
2021/01/10 00:49:39;;;;;;;74.18;37.50;;;-1.40;99.90;;;;;;5054703;28;20025;-76
2021/01/10 00:52:05;;;;;;;77.50;35.80;;;-1.10;99.90;;;;;;5053828;28;20115;-76
2021/01/10 00:54:54;;;;;;;79.45;36.63;;;-1.00;99.90;;;;;;5054390;28;20057;-76
2021/01/10 00:57:20;;;;;;;69.88;34.55;;;-0.90;99.90;;;;;;5054224;28;20032;-77
2021/01/10 00:59:46;;;;;;;74.22;35.92;;;-0.60;99.90;;;;;;5052804;28;20025;-76
2021/01/10 01:02:12;;;;;;;75.10;36.63;;;-0.40;98.80;;;;;;5054455;28;20370;-76
2021/01/10 01:04:38;;;;;;;75.07;37.83;;;-0.40;97.70;;;;;;5052858;28;20021;-76
2021/01/10 01:07:04;;;;;;;78.65;36.95;;;-0.30;96.40;;;;;;5053877;28;20032;-75
2021/01/10 01:09:29;;;;;;;75.53;36.80;;;-0.50;96.10;;;;;;5054022;28;20029;-76
2021/01/10 01:11:55;;;;;;;74.47;36.92;;;-0.50;96.50;;;;;;5052312;28;20485;-76
2021/01/10 01:14:21;;;;;;;68.32;35.10;;;-0.50;97.70;;;;;;5053763;28;20025;-76
2021/01/10 01:16:47;;;;;;;73.60;35.55;;;-0.60;97.20;;;;;;5053603;28;20040;-76
2021/01/10 01:19:13;;;;;;;84.82;39.85;;;-0.50;97.60;;;;;;5052690;28;20024;-76
2021/01/10 01:21:38;;;;;;;74.43;37.95;;;-0.70;95.20;;;;;;5052347;28;20021;-76
2021/01/10 01:24:05;;;;;;;72.38;34.90;;;-0.80;96.00;;;;;;5052470;28;20025;-76
2021/01/10 01:26:30;;;;;;;71.65;36.35;;;-0.90;95.40;;;;;;5053398;28;20074;-76
2021/01/10 01:28:56;;;;;;;76.18;35.38;;;-1.00;95.90;;;;;;5052510;28;20033;-76
2021/01/10 01:31:24;;;;;;;73.43;36.38;;;-1.00;98.10;;;;;;5052118;28;20613;-76
2021/01/10 01:33:51;;;;;;;69.32;33.75;;;-0.90;98.00;;;;;;5053529;28;20031;-76
2021/01/10 01:36:24;;;;;;;74.70;36.70;;;-0.90;97.40;;;;;;5053082;28;20031;-76
2021/01/10 01:38:57;;;;;;;69.75;34.92;;;-1.00;96.20;;;;;;5053513;28;20017;-76
2021/01/10 01:41:24;;;;;;;67.15;33.17;;;-0.90;98.50;;;;;;5051961;28;20025;-76
2021/01/10 01:43:51;;;;;;;71.97;34.17;;;-0.80;97.50;;;;;;5052138;28;20021;-76
2021/01/10 01:46:31;;;;;;;72.20;34.75;;;-0.90;97.30;;;;;;5053358;28;20055;-76
2021/01/10 01:49:06;;;;;;;70.88;35.58;;;-0.90;99.10;;;;;;5051491;28;20029;-76
2021/01/10 01:51:34;;;;;;;73.18;35.90;;;-0.90;99.90;;;;;;5053332;28;20559;-76
2021/01/10 01:54:00;;;;;;;74.72;36.15;;;-0.80;99.70;;;;;;5051889;28;20072;-76
2021/01/10 01:56:26;;;;;;;69.32;35.13;;;-0.80;98.90;;;;;;5053158;28;20074;-76
2021/01/10 01:58:56;;;;;;;71.40;34.90;;;-0.80;98.90;;;;;;5052937;28;20270;-76
2021/01/10 02:01:24;;;;;;;68.90;35.53;;;-0.90;99.80;;;;;;5051716;28;20025;-76
2021/01/10 02:03:50;;;;;;;70.97;35.17;;;-0.80;99.90;;;;;;5052802;28;20396;-76
2021/01/10 02:06:19;;;;;;;68.97;34.13;;;-0.70;99.60;;;;;;5051715;28;20029;-76
2021/01/10 02:08:47;;;;;;;67.95;33.90;;;-0.60;99.20;;;;;;5051517;28;20389;-76
2021/01/10 02:11:14;;;;;;;74.63;35.53;;;-0.50;99.10;;;;;;5052792;28;20484;-76
2021/01/10 02:13:41;;;;;;;75.40;35.95;;;-0.20;96.70;;;;;;5052650;28;20086;-76
2021/01/10 02:16:08;;;;;;;70.07;35.28;;;-0.30;95.80;;;;;;5052571;28;20108;-76
2021/01/10 02:18:36;;;;;;;68.03;34.20;;;-0.40;95.90;;;;;;5051541;28;20028;-76
2021/01/10 02:21:08;;;;;;;66.55;35.15;;;-0.40;96.40;;;;;;5051500;28;20029;-76
2021/01/10 02:23:35;;;;;;;67.53;34.95;;;-0.60;96.40;;;;;;5052839;28;20021;-76
2021/01/10 02:26:02;;;;;;;76.18;36.90;;;-0.80;96.80;;;;;;5052641;28;20480;-76
2021/01/10 02:28:31;;;;;;;77.82;35.83;;;-0.60;97.10;;;;;;5051126;28;20032;-76
2021/01/10 02:31:02;;;;;;;69.25;35.95;;;-0.70;99.00;;;;;;5051285;28;20052;-77
2021/01/10 02:33:46;;;;;;;72.30;34.17;;;-0.50;98.90;;;;;;5052989;28;20502;-77
2021/01/10 02:36:19;;;;;;;76.65;36.72;;;-0.70;97.00;;;;;;5052972;28;20060;-76
2021/01/10 02:39:11;;;;;;;71.88;37.05;;;-1.00;98.70;;;;;;5052581;28;20615;-76
2021/01/10 02:41:53;;;;;;;76.30;37.60;;;-1.10;99.90;;;;;;5052491;28;20091;-77
2021/01/10 02:44:27;;;;;;;70.18;36.50;;;-0.90;99.90;;;;;;5052095;28;20025;-76
2021/01/10 02:46:53;;;;;;;78.80;38.17;;;-0.80;99.90;;;;;;5052247;28;20028;-77
2021/01/10 02:49:20;;;;;;;74.47;36.88;;;-0.80;99.80;;;;;;5052011;28;20272;-76
2021/01/10 02:51:47;;;;;;;75.13;36.33;;;-0.90;98.20;;;;;;5052184;28;20455;-76
2021/01/10 02:54:13;;;;;;;79.95;36.85;;;-0.90;97.90;;;;;;5052112;28;20106;-76
2021/01/10 02:56:54;;;;;;;70.32;34.42;;;-0.90;98.80;;;;;;5051674;28;20021;-76
2021/01/10 02:59:25;;;;;;;68.05;36.50;;;-0.80;98.00;;;;;;5050730;28;20021;-77
2021/01/10 03:01:55;;;;;;;80.05;36.92;;;-0.80;98.90;;;;;;5051039;28;20473;-76
2021/01/10 03:04:22;;;;;;;73.13;36.58;;;-0.70;98.80;;;;;;5051862;28;20095;-76
2021/01/10 03:06:52;;;;;;;76.75;38.83;;;-0.70;97.40;;;;;;5051718;28;20435;-76
2021/01/10 03:09:18;;;;;;;74.10;37.70;;;-0.70;97.20;;;;;;5051735;28;20021;-76
2021/01/10 03:11:44;;;;;;;77.32;36.90;;;-0.80;96.60;;;;;;5051281;28;20041;-77
2021/01/10 03:14:10;;;;;;;73.00;35.78;;;-0.70;98.50;;;;;;5051619;28;20031;-76
2021/01/10 03:16:36;;;;;;;70.47;35.38;;;-0.60;97.00;;;;;;5050040;28;20048;-76
2021/01/10 03:19:03;;;;;;;73.10;35.13;;;-0.60;96.60;;;;;;5051628;28;20071;-76
2021/01/10 03:21:28;;;;;;;69.68;35.50;;;-0.90;96.80;;;;;;5051252;28;20059;-76
2021/01/10 03:23:54;;;;;;;79.22;39.65;;;-1.00;97.30;;;;;;5051592;28;20048;-76
2021/01/10 03:26:21;;;;;;;75.43;35.95;;;-1.00;97.80;;;;;;5050982;28;20107;-76
2021/01/10 03:28:47;;;;;;;81.68;38.83;;;-0.90;96.80;;;;;;5051657;28;20071;-76
2021/01/10 03:31:12;;;;;;;69.32;34.05;;;-0.90;97.20;;;;;;5050880;28;20049;-76
2021/01/10 03:33:45;;;;;;;79.38;37.58;;;-0.90;96.50;;;;;;5051436;28;20025;-76
2021/01/10 03:36:15;;;;;;;77.68;37.35;;;-1.00;96.70;;;;;;5050910;28;20024;-76
2021/01/10 03:38:42;;;;;;;76.68;37.95;;;-1.10;96.20;;;;;;5051345;28;20053;-76
2021/01/10 03:41:08;;;;;;;83.20;38.97;;;-1.20;97.30;;;;;;5051370;28;20064;-76
2021/01/10 03:43:34;;;;;;;81.90;36.72;;;-1.10;98.00;;;;;;5033090;28;20427;-77
2021/01/10 03:46:01;;;;;;;77.97;39.15;;;-1.00;97.20;;;;;;5051017;28;20025;-76
2021/01/10 03:48:26;;;;;;;93.85;41.90;;;-1.10;97.00;;;;;;5050961;28;20384;-76
2021/01/10 03:50:52;;;;;;;94.00;42.60;;;-1.30;97.60;;;;;;5051072;28;20025;-76
2021/01/10 03:53:18;;;;;;;110.28;46.35;;;-1.10;98.20;;;;;;5050862;28;20025;-76
2021/01/10 03:55:44;;;;;;;87.00;42.17;;;-1.30;98.40;;;;;;5050988;28;20142;-76
2021/01/10 03:58:09;;;;;;;93.13;41.30;;;-1.30;99.90;;;;;;5051000;28;20021;-76
2021/01/10 04:00:35;;;;;;;87.30;38.47;;;-1.30;99.90;;;;;;5049547;28;20060;-76
2021/01/10 04:03:01;;;;;;;102.47;41.58;;;-1.40;99.80;;;;;;5049513;28;20028;-76
2021/01/10 04:05:27;;;;;;;87.88;38.33;;;-1.60;98.40;;;;;;5049353;28;20140;-76
2021/01/10 04:07:52;;;;;;;85.65;39.25;;;-1.70;99.90;;;;;;5050528;28;20396;-76
2021/01/10 04:10:18;;;;;;;99.35;42.78;;;-1.90;99.90;;;;;;5050698;28;20036;-76
2021/01/10 04:12:44;;;;;;;120.30;42.88;;;-2.00;99.90;;;;;;5050363;28;20021;-76
2021/01/10 04:15:10;;;;;;;129.32;46.58;;;-1.90;99.90;;;;;;5050683;28;20070;-76
2021/01/10 04:17:36;;;;;;;197.48;45.05;;;-2.10;99.90;;;;;;5049542;28;20032;-76
2021/01/10 04:20:02;;;;;;;115.05;46.08;;;-2.10;99.90;;;;;;5050451;28;20526;-76
2021/01/10 04:22:28;;;;;;;113.63;46.25;;;-2.00;99.90;;;;;;5049587;28;20025;-76
2021/01/10 04:24:54;;;;;;;122.38;40.72;;;-2.10;99.90;;;;;;5049444;28;20063;-76
2021/01/10 04:27:20;;;;;;;120.07;42.15;;;-2.00;99.90;;;;;;5051448;28;20461;-76
2021/01/10 04:29:45;;;;;;;146.32;39.75;;;-2.10;99.90;;;;;;5049643;28;20036;-76
2021/01/10 04:32:11;;;;;;;124.25;43.33;;;-2.10;99.90;;;;;;5050552;28;20025;-76
2021/01/10 04:34:37;;;;;;;156.40;38.50;;;-2.10;99.90;;;;;;5050704;28;20053;-76
2021/01/10 04:37:03;;;;;;;215.45;39.15;;;-2.00;99.90;;;;;;5050630;28;20057;-76
2021/01/10 04:39:29;;;;;;;194.57;40.92;;;-2.00;99.90;;;;;;5050289;28;20025;-76
2021/01/10 04:41:55;;;;;;;108.32;39.13;;;-2.00;99.90;;;;;;5050661;28;20029;-77
2021/01/10 04:44:23;;;;;;;134.02;39.05;;;-2.00;99.90;;;;;;5050065;28;20100;-77
2021/01/10 04:46:50;;;;;;;101.78;39.75;;;-1.80;99.90;;;;;;5049101;28;20108;-77
2021/01/10 04:49:17;;;;;;;173.02;37.92;;;-1.70;99.90;;;;;;5050220;28;20021;-76
2021/01/10 04:51:45;;;;;;;118.28;39.88;;;-1.90;99.90;;;;;;5049302;28;20030;-76
2021/01/10 04:54:11;;;;;;;135.55;40.65;;;-1.80;99.90;;;;;;5050251;28;20366;-76
2021/01/10 04:56:40;;;;;;;132.23;38.97;;;-2.00;99.90;;;;;;5050008;28;20044;-76
2021/01/10 04:59:06;;;;;;;131.05;35.83;;;-1.90;99.90;;;;;;5050252;28;20021;-76
2021/01/10 05:01:41;;;;;;;85.07;35.50;;;-2.10;99.90;;;;;;5048805;28;20027;-76
2021/01/10 05:04:07;;;;;;;95.05;39.20;;;-2.00;99.90;;;;;;5048888;28;20116;-76
2021/01/10 05:06:35;;;;;;;87.80;36.58;;;-2.00;99.90;;;;;;5048746;28;20112;-76
2021/01/10 05:09:03;;;;;;;173.35;38.42;;;-1.90;99.90;;;;;;5048962;28;20484;-76
2021/01/10 05:11:29;;;;;;;119.40;39.30;;;-1.90;99.90;;;;;;5048579;28;20036;-76
2021/01/10 05:13:55;;;;;;;92.32;37.17;;;-1.80;99.90;;;;;;5050114;28;20021;-76
2021/01/10 05:16:21;;;;;;;148.63;38.95;;;-1.80;99.90;;;;;;5048534;28;20492;-76
2021/01/10 05:18:54;;;;;;;118.82;37.92;;;-1.90;99.90;;;;;;5050213;28;20022;-76
2021/01/10 05:21:21;;;;;;;137.18;40.22;;;-2.10;99.90;;;;;;5050192;28;20097;-76
2021/01/10 05:23:58;;;;;;;125.43;37.80;;;-2.20;99.90;;;;;;5050050;28;20025;-76
2021/01/10 05:26:31;;;;;;;135.10;35.28;;;-2.40;99.90;;;;;;5053729;28;20080;-76
2021/01/10 05:29:03;;;;;;;115.28;36.88;;;-2.30;99.90;;;;;;5053832;28;20444;-76
2021/01/10 05:31:43;;;;;;;124.63;39.00;;;-2.40;99.90;;;;;;5053355;28;20028;-76
2021/01/10 05:34:13;;;;;;;97.68;34.65;;;-2.30;99.90;;;;;;5053514;28;20032;-76
2021/01/10 05:36:39;;;;;;;95.90;35.47;;;-2.40;99.90;;;;;;5053374;28;20025;-76
2021/01/10 05:39:24;;;;;;;131.63;36.97;;;-2.40;99.90;;;;;;5053555;28;20091;-76
2021/01/10 05:41:56;;;;;;;97.75;36.22;;;-2.40;99.90;;;;;;5053263;28;20055;-76
2021/01/10 05:44:26;;;;;;;103.53;36.88;;;-2.50;99.90;;;;;;5053269;28;20024;-76
2021/01/10 05:47:07;;;;;;;160.48;37.40;;;-2.50;99.90;;;;;;5053040;28;20025;-76
2021/01/10 05:49:33;;;;;;;83.80;34.78;;;-2.80;99.90;;;;;;5053376;28;20025;-76
2021/01/10 05:52:09;;;;;;;90.53;35.25;;;-2.80;99.90;;;;;;5053019;28;20032;-76
2021/01/10 05:54:46;;;;;;;171.10;36.58;;;-2.70;99.90;;;;;;5051915;28;20484;-76
2021/01/10 05:57:12;;;;;;;154.02;38.90;;;-2.60;99.90;;;;;;5052692;28;20031;-75
2021/01/10 05:59:46;;;;;;;92.95;37.17;;;-2.60;99.90;;;;;;5053245;28;20435;-76
2021/01/10 06:02:12;;;;;;;122.40;34.58;;;-2.60;99.90;;;;;;5053208;28;20017;-76
2021/01/10 06:04:38;;;;;;;107.60;32.70;;;-3.00;99.90;;;;;;5053075;28;20484;-76
2021/01/10 06:07:04;;;;;;;78.13;35.53;;;-3.40;99.90;;;;;;5053601;28;20025;-76
2021/01/10 06:09:48;;;;;;;76.97;31.02;;;-3.30;99.90;;;;;;5051869;28;20539;-76
2021/01/10 06:12:24;;;;;;;142.02;32.60;;;-3.30;99.90;;;;;;5053192;28;20086;-77
2021/01/10 06:15:17;;;;;;;105.20;32.17;;;-3.40;99.90;;;;;;5052506;28;20033;-76
2021/01/10 06:17:50;;;;;;;127.05;32.85;;;-3.20;99.90;;;;;;5052873;28;20025;-76
2021/01/10 06:20:29;;;;;;;159.10;34.25;;;-3.30;99.90;;;;;;5052674;28;20385;-76
2021/01/10 06:22:57;;;;;;;125.05;33.95;;;-3.60;99.90;;;;;;5052815;28;20017;-76
2021/01/10 06:25:27;;;;;;;183.98;30.17;;;-3.80;99.90;;;;;;5051206;28;20376;-76
2021/01/10 06:28:07;;;;;;;154.70;33.67;;;-3.80;99.90;;;;;;5052777;28;20036;-76
2021/01/10 06:30:35;;;;;;;124.72;32.22;;;-3.60;99.90;;;;;;5052191;28;20036;-76
2021/01/10 06:33:11;;;;;;;183.15;33.50;;;-3.60;99.90;;;;;;5052498;28;20029;-76
2021/01/10 06:35:39;;;;;;;177.27;33.78;;;-3.70;99.90;;;;;;5052158;28;20480;-76
2021/01/10 06:38:07;;;;;;;158.32;32.28;;;-3.70;99.90;;;;;;5052386;28;20477;-76
2021/01/10 06:40:35;;;;;;;157.68;35.50;;;-3.60;99.90;;;;;;5052072;28;20031;-76
2021/01/10 06:43:03;;;;;;;136.57;34.63;;;-3.70;99.90;;;;;;5052384;28;20367;-76
2021/01/10 06:45:40;;;;;;;230.45;33.80;;;-3.80;99.90;;;;;;5051838;28;20025;-76
2021/01/10 06:48:07;;;;;;;148.40;33.78;;;-3.80;99.90;;;;;;5052562;28;20025;-77
2021/01/10 06:50:34;;;;;;;219.63;38.17;;;-4.10;99.90;;;;;;5051877;28;20021;-76
2021/01/10 06:53:07;;;;;;;163.90;33.78;;;-4.20;99.90;;;;;;5052548;28;20032;-76
2021/01/10 06:55:33;;;;;;;187.23;35.05;;;-4.20;99.90;;;;;;5051678;28;20086;-76
2021/01/10 06:58:06;;;;;;;132.30;31.30;;;-4.30;99.90;;;;;;5050684;28;20033;-77
2021/01/10 07:00:59;;;;;;;144.52;32.28;;;-4.40;99.90;;;;;;5051758;28;20059;-76
2021/01/10 07:03:28;;;;;;;212.55;31.60;;;-4.30;99.90;;;;;;5049973;28;20045;-76
2021/01/10 07:05:57;;;;;;;86.68;28.58;;;-4.50;99.90;;;;;;5051706;28;20021;-76
2021/01/10 07:08:40;;;;;;;97.75;27.27;;;-4.50;99.90;;;;;;5051850;28;20028;-77
2021/01/10 07:11:21;;;;;;;109.70;26.35;;;-4.40;99.90;;;;;;5051424;28;20084;-77
2021/01/10 07:14:27;;;;;;;138.70;28.95;;;-4.50;99.90;;;;;;5052208;28;20029;-76
2021/01/10 07:17:10;;;;;;;91.18;28.67;;;-4.40;99.90;;;;;;5049448;28;20044;-76
2021/01/10 07:19:44;;;;;;;102.05;28.67;;;-4.20;99.90;;;;;;5050319;28;20564;-76
2021/01/10 07:22:31;;;;;;;96.90;27.58;;;-4.30;99.90;;;;;;5049798;28;20021;-76
2021/01/10 07:24:57;;;;;;;88.18;26.27;;;-4.40;99.90;;;;;;5051599;28;20023;-76
2021/01/10 07:27:34;;;;;;;120.70;30.02;;;-4.40;99.90;;;;;;5051623;28;20031;-77
2021/01/10 07:30:21;;;;;;;88.60;28.17;;;-4.50;99.90;;;;;;5051504;28;20108;-76
2021/01/10 07:32:47;;;;;;;95.03;30.17;;;-4.70;99.90;;;;;;5051215;28;20476;-76
2021/01/10 07:35:13;;;;;;;137.02;30.10;;;-4.70;99.90;;;;;;5049975;28;20032;-77
2021/01/10 07:37:41;;;;;;;150.18;28.48;;;-4.80;99.90;;;;;;5051000;28;20033;-76
2021/01/10 07:40:09;;;;;;;99.95;30.90;;;-4.90;99.90;;;;;;5051277;28;20017;-76
2021/01/10 07:42:39;;;;;;;86.75;29.13;;;-4.60;99.90;;;;;;5049623;28;20032;-76
2021/01/10 07:45:20;;;;;;;99.93;27.23;;;-4.50;99.90;;;;;;5051302;28;20025;-76
2021/01/10 07:47:47;;;;;;;102.68;27.48;;;-4.60;99.90;;;;;;5049668;28;20094;-76
2021/01/10 07:50:15;;;;;;;98.70;30.00;;;-4.80;99.90;;;;;;5050440;28;20025;-76
2021/01/10 07:52:41;;;;;;;116.35;30.02;;;-4.50;99.90;;;;;;5050371;28;20096;-76
2021/01/10 07:55:28;;;;;;;123.13;30.10;;;-4.50;99.90;;;;;;5050016;28;20111;-76
2021/01/10 07:58:00;;;;;;;247.35;30.77;;;-4.40;99.90;;;;;;5043783;28;20062;-76
2021/01/10 08:00:36;;;;;;;204.65;30.17;;;-4.40;99.90;;;;;;5051021;28;20033;-76
2021/01/10 08:03:09;;;;;;;201.20;31.73;;;-4.60;99.90;;;;;;5050761;28;20033;-76
2021/01/10 08:05:40;;;;;;;262.08;29.95;;;-4.80;99.90;;;;;;5050707;28;20444;-77
2021/01/10 08:08:12;;;;;;;;;;;-4.90;99.90;;;;;;5049991;28;20108;-76
2021/01/10 08:10:51;;;;;;;112.35;25.92;;;-4.80;99.90;;;;;;5062691;23;19912;-72
2021/01/10 08:13:28;;;;;;;130.45;26.40;;;-4.70;99.90;;;;;;5008498;28;20041;-72
2021/01/10 08:16:03;;;;;;;172.73;27.83;;;-5.00;99.90;;;;;;5009880;28;20073;-73
2021/01/10 08:18:40;;;;;;;107.47;25.85;;;-5.10;99.90;;;;;;5008457;28;20469;-72
2021/01/10 08:21:09;;;;;;;82.63;27.77;;;-5.20;99.90;;;;;;5008851;28;20510;-74
2021/01/10 08:23:36;;;;;;;94.18;24.67;;;-5.20;99.90;;;;;;5008467;28;20018;-72
2021/01/10 08:26:11;;;;;;;71.45;25.23;;;-5.20;99.90;;;;;;5008869;28;20529;-73
2021/01/10 08:28:39;;;;;;;68.07;24.70;;;-5.20;99.90;;;;;;5010899;28;20024;-73
2021/01/10 08:31:17;;;;;;;39.00;21.70;;;-5.20;99.90;;;;;;5011609;28;20029;-73
2021/01/10 08:33:43;;;;;;;44.63;21.58;;;-5.10;99.90;;;;;;5009676;28;20370;-74
2021/01/10 08:36:13;;;;;;;35.42;18.95;;;-5.20;99.90;;;;;;5015618;28;20033;-75
2021/01/10 08:38:52;;;;;;;25.42;15.95;;;-5.30;99.80;;;;;;5026165;28;20068;-75
2021/01/10 08:41:32;;;;;;;30.63;16.63;;;-5.20;98.00;;;;;;4991386;28;20109;-75
2021/01/10 08:44:21;;;;;;;28.65;16.48;;;-5.00;96.30;;;;;;5007009;28;20025;-74
2021/01/10 08:46:51;;;;;;;33.38;17.40;;;-4.70;94.00;;;;;;5029169;28;20026;-75
2021/01/10 08:49:26;;;;;;;27.77;17.40;;;-4.70;92.70;;;;;;5030477;28;20410;-75
2021/01/10 08:51:53;;;;;;;30.50;16.77;;;-4.80;93.70;;;;;;5027645;28;20022;-75
2021/01/10 08:54:24;;;;;;;34.70;18.40;;;-4.70;93.90;;;;;;5010375;28;20088;-75
2021/01/10 08:56:52;;;;;;;30.42;17.15;;;-4.60;94.30;;;;;;5009640;28;20439;-75
2021/01/10 08:59:19;;;;;;;45.08;18.67;;;-4.50;95.50;;;;;;5012472;28;20313;-75
2021/01/10 09:01:46;;;;;;;43.33;20.20;;;-4.20;95.60;;;;;;5014281;28;20018;-75
2021/01/10 09:04:13;;;;;;;46.03;20.48;;;-3.90;95.90;;;;;;5014253;28;20406;-75
2021/01/10 09:06:46;;;;;;;40.80;21.38;;;-3.90;95.40;;;;;;5014090;28;20068;-75
2021/01/10 09:09:24;;;;;;;42.88;20.40;;;-3.80;96.40;;;;;;5019387;28;20025;-75
2021/01/10 09:12:14;;;;;;;41.05;19.75;;;-3.70;95.80;;;;;;5033603;28;20071;-75
2021/01/10 09:15:11;;;;;;;40.40;20.08;;;-3.90;97.30;;;;;;5033951;28;20056;-75
2021/01/10 09:17:43;;;;;;;36.47;20.77;;;-3.60;97.20;;;;;;5032492;28;20048;-75
2021/01/10 09:20:14;;;;;;;41.25;21.95;;;-3.40;97.00;;;;;;5032666;28;20377;-75
2021/01/10 09:22:40;;;;;;;30.50;15.73;;;-3.40;97.10;;;;;;5033616;28;20026;-75
2021/01/10 09:25:17;;;;;;;39.70;20.33;;;-3.40;96.30;;;;;;5033755;28;20026;-75
2021/01/10 09:28:12;;;;;;;47.50;20.85;;;-3.30;95.70;;;;;;5033703;28;20037;-75
2021/01/10 09:30:40;;;;;;;39.60;18.35;;;-3.20;94.60;;;;;;5033649;28;20045;-75
2021/01/10 09:33:07;;;;;;;37.42;20.77;;;-3.20;94.60;;;;;;5033482;28;20057;-75
2021/01/10 09:35:47;;;;;;;36.67;19.50;;;-3.20;94.80;;;;;;5033690;28;20029;-75
2021/01/10 09:38:23;;;;;;;50.35;23.00;;;-2.90;95.00;;;;;;5033284;28;20021;-75
2021/01/10 09:41:04;;;;;;;58.65;28.25;;;-2.80;93.60;;;;;;5033714;28;20024;-75
2021/01/10 09:43:50;;;;;;;43.60;24.63;;;-2.60;94.60;;;;;;5025977;28;20072;-75
2021/01/10 09:46:35;;;;;;;42.28;22.50;;;-2.20;94.10;;;;;;5014323;28;20505;-75
2021/01/10 09:49:15;;;;;;;38.65;21.10;;;-1.80;93.00;;;;;;5012613;28;20036;-75
2021/01/10 09:51:42;;;;;;;43.47;22.80;;;-1.50;91.80;;;;;;4996344;28;20072;-75
2021/01/10 09:54:15;;;;;;;38.60;21.05;;;-1.20;90.10;;;;;;5013191;28;20053;-75
2021/01/10 09:56:40;;;;;;;44.85;21.60;;;-0.70;90.60;;;;;;5013434;28;20026;-73
2021/01/10 09:59:31;;;;;;;37.45;19.98;;;0.00;87.50;;;;;;5011957;28;20071;-72
2021/01/10 10:01:58;;;;;;;39.55;19.92;;;0.70;82.30;;;;;;5012064;28;20029;-73
2021/01/10 10:04:28;;;;;;;37.80;19.98;;;1.10;81.20;;;;;;5011722;28;20025;-73
2021/01/10 10:06:54;;;;;;;43.40;21.65;;;1.80;79.50;;;;;;5013365;28;20261;-74
2021/01/10 10:09:21;;;;;;;46.60;20.02;;;2.40;75.40;;;;;;4994967;28;20026;-73
2021/01/10 10:11:46;;;;;;;30.25;18.05;;;2.70;74.50;;;;;;5013303;28;20362;-73
2021/01/10 10:14:15;;;;;;;30.85;18.45;;;3.40;70.90;;;;;;5011165;28;20113;-73
2021/01/10 10:16:41;;;;;;;32.50;17.60;;;4.20;69.10;;;;;;5012707;28;20077;-72
2021/01/10 10:19:08;;;;;;;32.88;19.15;;;4.90;65.30;;;;;;5013130;28;20076;-73
2021/01/10 10:21:34;;;;;;;39.70;19.13;;;5.20;62.50;;;;;;5011545;28;20033;-76
2021/01/10 10:24:00;;;;;;;32.45;18.80;;;5.70;61.20;;;;;;5013029;28;20026;-73
2021/01/10 10:26:25;;;;;;;39.58;21.00;;;5.50;59.90;;;;;;5012448;28;20028;-73
2021/01/10 10:28:51;;;;;;;33.60;18.92;;;4.90;60.30;;;;;;5012893;28;20026;-75
2021/01/10 10:31:17;;;;;;;33.88;20.73;;;5.10;60.60;;;;;;5011087;28;20030;-73
2021/01/10 10:33:43;;;;;;;57.42;20.13;;;5.50;60.00;;;;;;5012809;28;20025;-75
2021/01/10 10:36:09;;;;;;;34.08;19.25;;;5.70;58.80;;;;;;5011031;28;20029;-73
2021/01/10 10:38:35;;;;;;;28.65;19.00;;;6.10;58.80;;;;;;5009782;28;20021;-73
2021/01/10 10:41:01;;;;;;;40.20;19.05;;;6.50;58.10;;;;;;5011081;28;20050;-73
2021/01/10 10:43:27;;;;;;;34.92;19.80;;;6.60;57.20;;;;;;5012556;28;20038;-73
2021/01/10 10:45:53;;;;;;;35.13;19.23;;;7.10;55.90;;;;;;5010564;28;20022;-74
2021/01/10 10:48:19;;;;;;;33.30;17.45;;;7.30;54.70;;;;;;5011452;28;20385;-75
2021/01/10 10:50:44;;;;;;;32.72;17.60;;;7.50;54.20;;;;;;5010206;28;20034;-73
2021/01/10 10:53:10;;;;;;;25.58;16.92;;;7.40;53.60;;;;;;5011114;28;20109;-73
2021/01/10 10:55:36;;;;;;;28.17;17.15;;;7.60;53.70;;;;;;5012188;28;20053;-73
2021/01/10 10:58:02;;;;;;;24.38;15.35;;;8.00;52.80;;;;;;5011707;28;20061;-73
2021/01/10 11:00:28;;;;;;;24.90;16.83;;;8.40;51.30;;;;;;5003486;28;20018;-74
2021/01/10 11:02:53;;;;;;;24.48;15.05;;;8.90;51.00;;;;;;4994482;28;20080;-73
2021/01/10 11:05:22;;;;;;;23.67;14.77;;;8.70;50.90;;;;;;4993124;28;20478;-73
2021/01/10 11:07:48;;;;;;;28.42;14.88;;;9.00;49.80;;;;;;5011865;28;20531;-73
2021/01/10 11:10:14;;;;;;;23.70;14.63;;;8.90;50.20;;;;;;5011563;28;20025;-76
2021/01/10 11:12:40;;;;;;;20.55;13.18;;;8.80;49.70;;;;;;5011915;28;20506;-76
2021/01/10 11:15:07;;;;;;;39.42;13.30;;;9.10;49.50;;;;;;5010322;28;20129;-73
2021/01/10 11:17:33;;;;;;;28.83;14.32;;;8.70;49.10;;;;;;5010496;28;20033;-74
2021/01/10 11:20:01;;;;;;;21.10;13.77;;;8.60;50.60;;;;;;5011500;28;20022;-75
2021/01/10 11:22:29;;;;;;;22.63;12.60;;;9.00;49.80;;;;;;5011257;28;20024;-74
2021/01/10 11:24:55;;;;;;;40.75;14.43;;;9.10;48.50;;;;;;5011392;28;20068;-75
2021/01/10 11:27:21;;;;;;;23.23;14.43;;;9.20;48.30;;;;;;5011665;28;20022;-75
2021/01/10 11:29:47;;;;;;;35.28;15.50;;;9.10;48.60;;;;;;5011607;28;20394;-75
2021/01/10 11:32:13;;;;;;;27.83;15.38;;;9.40;48.00;;;;;;5011532;28;20033;-75
2021/01/10 11:34:39;;;;;;;24.40;13.18;;;8.50;48.70;;;;;;5011433;28;20022;-74
2021/01/10 11:37:05;;;;;;;22.27;14.45;;;8.50;49.20;;;;;;5011712;28;20033;-75
2021/01/10 11:39:30;;;;;;;26.95;13.50;;;8.50;49.70;;;;;;5011745;28;20274;-75
2021/01/10 11:41:57;;;;;;;22.65;14.30;;;8.80;49.00;;;;;;5011408;28;20382;-75
2021/01/10 11:44:24;;;;;;;22.75;14.55;;;8.70;48.70;;;;;;5011568;28;20036;-75
2021/01/10 11:46:52;;;;;;;20.60;14.50;;;8.70;49.20;;;;;;5012987;28;20057;-77
2021/01/10 11:49:20;;;;;;;29.27;13.02;;;9.30;47.60;;;;;;4995084;28;20085;-77
2021/01/10 11:51:46;;;;;;;44.72;17.50;;;8.80;47.70;;;;;;5011194;28;20135;-76
2021/01/10 11:54:12;;;;;;;44.08;15.23;;;8.70;48.60;;;;;;4994926;28;20478;-76
2021/01/10 11:56:39;;;;;;;36.25;15.77;;;8.80;48.50;;;;;;5010518;28;20394;-77
2021/01/10 11:59:05;;;;;;;33.65;14.77;;;8.60;48.40;;;;;;5010828;28;20026;-77
2021/01/10 12:01:32;;;;;;;23.25;12.77;;;8.20;49.40;;;;;;5012335;28;20567;-77
2021/01/10 12:03:58;;;;;;;21.95;13.73;;;8.40;48.60;;;;;;5012321;28;20026;-76
2021/01/10 12:06:24;;;;;;;19.60;11.90;;;8.00;49.10;;;;;;4994186;28;20022;-76
2021/01/10 12:08:50;;;;;;;22.80;14.25;;;7.60;49.20;;;;;;5010856;28;20041;-77
2021/01/10 12:11:16;;;;;;;21.50;12.13;;;7.70;50.20;;;;;;5010692;28;20433;-76
2021/01/10 12:13:43;;;;;;;30.15;14.15;;;7.90;49.80;;;;;;5012267;28;20026;-76
2021/01/10 12:16:15;;;;;;;32.70;12.48;;;7.40;50.40;;;;;;5011803;28;20049;-77
2021/01/10 12:18:42;;;;;;;23.65;12.82;;;7.10;51.40;;;;;;5011435;28;20022;-76
2021/01/10 12:21:08;;;;;;;20.08;12.73;;;6.90;51.40;;;;;;5012230;28;20026;-77
2021/01/10 12:23:38;;;;;;;31.65;12.55;;;6.70;52.20;;;;;;5010861;28;20022;-76
2021/01/10 12:26:22;;;;;;;24.15;12.27;;;6.00;53.40;;;;;;4992962;28;20026;-77
2021/01/10 12:28:48;;;;;;;26.73;13.85;;;4.60;56.50;;;;;;4990451;28;20073;-77
2021/01/10 12:31:14;;;;;;;29.45;13.13;;;3.90;59.30;;;;;;4992414;28;20434;-76
2021/01/10 12:33:40;;;;;;;33.97;14.23;;;3.20;61.20;;;;;;5012255;28;20022;-76
2021/01/10 12:36:09;;;;;;;28.73;15.88;;;3.00;63.60;;;;;;5014792;28;20034;-76
2021/01/10 12:38:35;;;;;;;33.95;15.63;;;2.80;64.90;;;;;;5014827;28;20025;-74
2021/01/10 12:41:01;;;;;;;27.45;15.48;;;2.30;65.80;;;;;;5014528;28;20496;-74